sensor_id;sensor_type;location;lat;lon;timestamp;P1;durP1;ratioP1;P2;durP2;ratioP2
6344;SDS011;3205;42.666;23.264;2022-09-25T00:00:55;8.27;;;6.87;;
6344;SDS011;3205;42.666;23.264;2022-09-25T00:03:23;9.43;;;6.43;;
6344;SDS011;3205;42.666;23.264;2022-09-25T00:05:58;15.90;;;6.93;;
6344;SDS011;3205;42.666;23.264;2022-09-25T00:08:26;10.37;;;7.00;;
6344;SDS011;3205;42.666;23.264;2022-09-25T00:10:53;10.70;;;6.43;;
6344;SDS011;3205;42.666;23.264;2022-09-25T00:13:21;15.13;;;7.20;;
6344;SDS011;3205;42.666;23.264;2022-09-25T00:15:49;11.40;;;7.00;;
6344;SDS011;3205;42.666;23.264;2022-09-25T00:18:18;8.87;;;6.23;;
6344;SDS011;3205;42.666;23.264;2022-09-25T00:21:07;8.47;;;6.20;;
6344;SDS011;3205;42.666;23.264;2022-09-25T00:23:36;9.23;;;7.30;;
6344;SDS011;3205;42.666;23.264;2022-09-25T00:26:03;10.50;;;6.70;;
6344;SDS011;3205;42.666;23.264;2022-09-25T00:28:33;14.17;;;6.63;;
6344;SDS011;3205;42.666;23.264;2022-09-25T00:31:00;9.83;;;6.07;;
6344;SDS011;3205;42.666;23.264;2022-09-25T00:33:27;10.23;;;7.20;;
6344;SDS011;3205;42.666;23.264;2022-09-25T00:35:54;8.33;;;6.70;;
6344;SDS011;3205;42.666;23.264;2022-09-25T00:38:21;15.97;;;6.53;;
6344;SDS011;3205;42.666;23.264;2022-09-25T00:40:47;11.60;;;6.90;;
6344;SDS011;3205;42.666;23.264;2022-09-25T00:43:15;10.00;;;6.23;;
6344;SDS011;3205;42.666;23.264;2022-09-25T00:46:02;11.97;;;7.13;;
6344;SDS011;3205;42.666;23.264;2022-09-25T00:48:33;8.97;;;6.80;;
6344;SDS011;3205;42.666;23.264;2022-09-25T00:51:00;10.50;;;6.80;;
6344;SDS011;3205;42.666;23.264;2022-09-25T00:53:29;8.97;;;6.00;;
6344;SDS011;3205;42.666;23.264;2022-09-25T00:55:59;10.10;;;6.93;;
6344;SDS011;3205;42.666;23.264;2022-09-25T00:58:28;13.57;;;7.10;;
6344;SDS011;3205;42.666;23.264;2022-09-25T01:00:59;9.40;;;7.00;;
6344;SDS011;3205;42.666;23.264;2022-09-25T01:03:26;8.83;;;6.83;;
6344;SDS011;3205;42.666;23.264;2022-09-25T01:05:53;9.00;;;6.47;;
6344;SDS011;3205;42.666;23.264;2022-09-25T01:08:24;13.17;;;6.70;;
6344;SDS011;3205;42.666;23.264;2022-09-25T01:10:53;9.23;;;6.83;;
6344;SDS011;3205;42.666;23.264;2022-09-25T01:13:20;12.10;;;8.53;;
6344;SDS011;3205;42.666;23.264;2022-09-25T01:15:48;14.57;;;8.13;;
6344;SDS011;3205;42.666;23.264;2022-09-25T01:18:26;13.50;;;8.30;;
6344;SDS011;3205;42.666;23.264;2022-09-25T01:21:07;11.13;;;7.93;;
6344;SDS011;3205;42.666;23.264;2022-09-25T01:23:46;11.57;;;8.40;;
6344;SDS011;3205;42.666;23.264;2022-09-25T01:26:25;15.10;;;7.80;;
6344;SDS011;3205;42.666;23.264;2022-09-25T01:29:10;14.97;;;7.93;;
6344;SDS011;3205;42.666;23.264;2022-09-25T01:31:44;10.60;;;7.57;;
6344;SDS011;3205;42.666;23.264;2022-09-25T01:34:13;11.60;;;9.17;;
6344;SDS011;3205;42.666;23.264;2022-09-25T01:36:47;10.07;;;7.87;;
6344;SDS011;3205;42.666;23.264;2022-09-25T01:39:18;10.90;;;7.70;;
6344;SDS011;3205;42.666;23.264;2022-09-25T01:41:48;10.30;;;7.43;;
6344;SDS011;3205;42.666;23.264;2022-09-25T01:44:21;10.70;;;7.40;;
6344;SDS011;3205;42.666;23.264;2022-09-25T01:46:53;9.80;;;7.23;;
6344;SDS011;3205;42.666;23.264;2022-09-25T01:49:25;10.90;;;7.27;;
6344;SDS011;3205;42.666;23.264;2022-09-25T01:51:55;8.47;;;6.90;;
6344;SDS011;3205;42.666;23.264;2022-09-25T01:54:26;11.93;;;7.57;;
6344;SDS011;3205;42.666;23.264;2022-09-25T01:56:57;12.33;;;6.60;;
6344;SDS011;3205;42.666;23.264;2022-09-25T01:59:32;11.20;;;7.67;;
6344;SDS011;3205;42.666;23.264;2022-09-25T02:02:04;9.80;;;7.07;;
6344;SDS011;3205;42.666;23.264;2022-09-25T02:04:38;10.53;;;7.10;;
6344;SDS011;3205;42.666;23.264;2022-09-25T02:07:08;14.20;;;6.77;;
6344;SDS011;3205;42.666;23.264;2022-09-25T02:09:39;9.23;;;6.80;;
6344;SDS011;3205;42.666;23.264;2022-09-25T02:12:10;8.50;;;6.50;;
6344;SDS011;3205;42.666;23.264;2022-09-25T02:14:42;8.90;;;6.87;;
6344;SDS011;3205;42.666;23.264;2022-09-25T02:17:13;9.53;;;7.23;;
6344;SDS011;3205;42.666;23.264;2022-09-25T02:20:04;12.67;;;7.23;;
6344;SDS011;3205;42.666;23.264;2022-09-25T02:22:49;8.77;;;7.37;;
6344;SDS011;3205;42.666;23.264;2022-09-25T02:25:18;12.77;;;7.87;;
6344;SDS011;3205;42.666;23.264;2022-09-25T02:27:50;11.40;;;7.53;;
6344;SDS011;3205;42.666;23.264;2022-09-25T02:30:19;10.90;;;7.27;;
6344;SDS011;3205;42.666;23.264;2022-09-25T02:32:46;13.00;;;8.03;;
6344;SDS011;3205;42.666;23.264;2022-09-25T02:35:30;10.13;;;7.20;;
6344;SDS011;3205;42.666;23.264;2022-09-25T02:37:58;9.20;;;6.40;;
6344;SDS011;3205;42.666;23.264;2022-09-25T02:40:27;7.93;;;6.00;;
6344;SDS011;3205;42.666;23.264;2022-09-25T02:43:03;13.43;;;7.40;;
6344;SDS011;3205;42.666;23.264;2022-09-25T02:45:41;9.47;;;6.53;;
6344;SDS011;3205;42.666;23.264;2022-09-25T02:48:21;8.97;;;6.07;;
6344;SDS011;3205;42.666;23.264;2022-09-25T02:50:55;7.27;;;6.40;;
6344;SDS011;3205;42.666;23.264;2022-09-25T02:53:34;9.03;;;6.13;;
6344;SDS011;3205;42.666;23.264;2022-09-25T02:56:07;10.30;;;6.73;;
6344;SDS011;3205;42.666;23.264;2022-09-25T02:58:39;10.03;;;7.07;;
6344;SDS011;3205;42.666;23.264;2022-09-25T03:01:12;7.30;;;6.60;;
6344;SDS011;3205;42.666;23.264;2022-09-25T03:03:41;12.20;;;6.73;;
6344;SDS011;3205;42.666;23.264;2022-09-25T03:06:11;9.73;;;6.33;;
6344;SDS011;3205;42.666;23.264;2022-09-25T03:08:39;19.07;;;7.70;;
6344;SDS011;3205;42.666;23.264;2022-09-25T03:11:13;8.80;;;6.47;;
6344;SDS011;3205;42.666;23.264;2022-09-25T03:13:42;8.43;;;7.07;;
6344;SDS011;3205;42.666;23.264;2022-09-25T03:16:11;12.40;;;7.23;;
6344;SDS011;3205;42.666;23.264;2022-09-25T03:18:44;9.13;;;6.27;;
6344;SDS011;3205;42.666;23.264;2022-09-25T03:21:11;8.93;;;6.57;;
6344;SDS011;3205;42.666;23.264;2022-09-25T03:23:38;8.60;;;7.00;;
6344;SDS011;3205;42.666;23.264;2022-09-25T03:26:05;7.40;;;6.60;;
6344;SDS011;3205;42.666;23.264;2022-09-25T03:28:32;11.07;;;7.20;;
6344;SDS011;3205;42.666;23.264;2022-09-25T03:31:00;12.17;;;7.23;;
6344;SDS011;3205;42.666;23.264;2022-09-25T03:33:32;14.27;;;7.23;;
6344;SDS011;3205;42.666;23.264;2022-09-25T03:36:04;12.73;;;7.57;;
6344;SDS011;3205;42.666;23.264;2022-09-25T03:38:33;19.73;;;8.63;;
6344;SDS011;3205;42.666;23.264;2022-09-25T03:41:01;14.27;;;8.17;;
6344;SDS011;3205;42.666;23.264;2022-09-25T03:43:29;11.50;;;8.33;;
6344;SDS011;3205;42.666;23.264;2022-09-25T03:45:57;9.00;;;7.77;;
6344;SDS011;3205;42.666;23.264;2022-09-25T03:48:24;11.33;;;8.37;;
6344;SDS011;3205;42.666;23.264;2022-09-25T03:50:52;13.40;;;7.33;;
6344;SDS011;3205;42.666;23.264;2022-09-25T03:53:21;12.13;;;7.27;;
6344;SDS011;3205;42.666;23.264;2022-09-25T03:55:49;11.93;;;7.10;;
6344;SDS011;3205;42.666;23.264;2022-09-25T03:58:16;8.77;;;6.77;;
6344;SDS011;3205;42.666;23.264;2022-09-25T04:00:44;13.27;;;7.30;;
6344;SDS011;3205;42.666;23.264;2022-09-25T04:03:11;13.77;;;7.63;;
6344;SDS011;3205;42.666;23.264;2022-09-25T04:05:38;12.17;;;8.20;;
6344;SDS011;3205;42.666;23.264;2022-09-25T04:08:07;15.93;;;7.77;;
6344;SDS011;3205;42.666;23.264;2022-09-25T04:10:34;13.30;;;7.00;;
6344;SDS011;3205;42.666;23.264;2022-09-25T04:13:03;9.10;;;7.07;;
6344;SDS011;3205;42.666;23.264;2022-09-25T04:15:30;11.87;;;7.13;;
6344;SDS011;3205;42.666;23.264;2022-09-25T04:17:57;13.20;;;8.63;;
6344;SDS011;3205;42.666;23.264;2022-09-25T04:20:24;12.37;;;7.13;;
6344;SDS011;3205;42.666;23.264;2022-09-25T04:22:51;10.97;;;8.13;;
6344;SDS011;3205;42.666;23.264;2022-09-25T04:25:19;12.53;;;7.73;;
6344;SDS011;3205;42.666;23.264;2022-09-25T04:27:49;10.27;;;7.10;;
6344;SDS011;3205;42.666;23.264;2022-09-25T04:30:18;17.13;;;8.40;;
6344;SDS011;3205;42.666;23.264;2022-09-25T04:32:45;13.23;;;7.50;;
6344;SDS011;3205;42.666;23.264;2022-09-25T04:35:29;14.27;;;8.43;;
6344;SDS011;3205;42.666;23.264;2022-09-25T04:37:56;17.57;;;8.90;;
6344;SDS011;3205;42.666;23.264;2022-09-25T04:40:24;17.23;;;8.90;;
6344;SDS011;3205;42.666;23.264;2022-09-25T04:42:53;17.90;;;9.00;;
6344;SDS011;3205;42.666;23.264;2022-09-25T04:45:21;23.03;;;9.17;;
6344;SDS011;3205;42.666;23.264;2022-09-25T04:47:48;17.23;;;9.13;;
6344;SDS011;3205;42.666;23.264;2022-09-25T04:50:15;16.93;;;9.10;;
6344;SDS011;3205;42.666;23.264;2022-09-25T04:52:41;16.60;;;9.27;;
6344;SDS011;3205;42.666;23.264;2022-09-25T04:55:08;23.80;;;10.07;;
6344;SDS011;3205;42.666;23.264;2022-09-25T04:57:36;15.80;;;9.47;;
6344;SDS011;3205;42.666;23.264;2022-09-25T05:00:04;14.73;;;9.70;;
6344;SDS011;3205;42.666;23.264;2022-09-25T05:02:32;20.57;;;9.80;;
6344;SDS011;3205;42.666;23.264;2022-09-25T05:04:59;11.43;;;9.03;;
6344;SDS011;3205;42.666;23.264;2022-09-25T05:07:26;16.93;;;9.80;;
6344;SDS011;3205;42.666;23.264;2022-09-25T05:09:53;12.67;;;9.03;;
6344;SDS011;3205;42.666;23.264;2022-09-25T05:12:19;14.83;;;8.37;;
6344;SDS011;3205;42.666;23.264;2022-09-25T05:14:48;16.50;;;9.03;;
6344;SDS011;3205;42.666;23.264;2022-09-25T05:17:14;12.87;;;8.53;;
6344;SDS011;3205;42.666;23.264;2022-09-25T05:19:41;14.53;;;8.17;;
6344;SDS011;3205;42.666;23.264;2022-09-25T05:22:08;19.47;;;8.93;;
6344;SDS011;3205;42.666;23.264;2022-09-25T05:24:35;12.37;;;8.60;;
6344;SDS011;3205;42.666;23.264;2022-09-25T05:27:02;11.90;;;8.40;;
6344;SDS011;3205;42.666;23.264;2022-09-25T05:29:29;14.27;;;8.30;;
6344;SDS011;3205;42.666;23.264;2022-09-25T05:31:57;19.00;;;8.97;;
6344;SDS011;3205;42.666;23.264;2022-09-25T05:34:24;15.63;;;8.37;;
6344;SDS011;3205;42.666;23.264;2022-09-25T05:36:51;16.53;;;8.13;;
6344;SDS011;3205;42.666;23.264;2022-09-25T05:39:18;10.75;;;6.65;;
6344;SDS011;3205;42.666;23.264;2022-09-25T05:41:45;20.75;;;7.20;;
6344;SDS011;3205;42.666;23.264;2022-09-25T05:44:12;8.15;;;6.80;;
6344;SDS011;3205;42.666;23.264;2022-09-25T05:46:39;9.75;;;6.68;;
6344;SDS011;3205;42.666;23.264;2022-09-25T05:49:07;8.52;;;6.75;;
6344;SDS011;3205;42.666;23.264;2022-09-25T05:51:34;11.07;;;6.75;;
6344;SDS011;3205;42.666;23.264;2022-09-25T05:54:01;11.13;;;7.53;;
6344;SDS011;3205;42.666;23.264;2022-09-25T05:56:27;12.45;;;7.10;;
6344;SDS011;3205;42.666;23.264;2022-09-25T05:58:54;10.20;;;6.90;;
6344;SDS011;3205;42.666;23.264;2022-09-25T06:01:22;7.97;;;6.78;;
6344;SDS011;3205;42.666;23.264;2022-09-25T06:03:50;10.45;;;7.13;;
6344;SDS011;3205;42.666;23.264;2022-09-25T06:06:18;7.60;;;6.88;;
6344;SDS011;3205;42.666;23.264;2022-09-25T06:08:45;7.00;;;6.30;;
6344;SDS011;3205;42.666;23.264;2022-09-25T06:11:12;8.38;;;7.45;;
6344;SDS011;3205;42.666;23.264;2022-09-25T06:13:39;9.20;;;6.72;;
6344;SDS011;3205;42.666;23.264;2022-09-25T06:16:12;11.93;;;7.78;;
6344;SDS011;3205;42.666;23.264;2022-09-25T06:18:43;10.23;;;7.13;;
6344;SDS011;3205;42.666;23.264;2022-09-25T06:21:10;12.07;;;8.27;;
6344;SDS011;3205;42.666;23.264;2022-09-25T06:23:38;9.52;;;8.35;;
6344;SDS011;3205;42.666;23.264;2022-09-25T06:26:07;13.98;;;8.57;;
6344;SDS011;3205;42.666;23.264;2022-09-25T06:28:34;17.08;;;8.82;;
6344;SDS011;3205;42.666;23.264;2022-09-25T06:31:01;13.73;;;7.80;;
6344;SDS011;3205;42.666;23.264;2022-09-25T06:33:29;10.02;;;7.68;;
6344;SDS011;3205;42.666;23.264;2022-09-25T06:35:56;14.73;;;8.18;;
6344;SDS011;3205;42.666;23.264;2022-09-25T06:38:24;10.80;;;8.02;;
6344;SDS011;3205;42.666;23.264;2022-09-25T06:40:52;11.15;;;8.15;;
6344;SDS011;3205;42.666;23.264;2022-09-25T06:43:19;13.88;;;8.18;;
6344;SDS011;3205;42.666;23.264;2022-09-25T06:45:46;7.90;;;6.47;;
6344;SDS011;3205;42.666;23.264;2022-09-25T06:48:14;10.77;;;6.22;;
6344;SDS011;3205;42.666;23.264;2022-09-25T06:50:41;8.90;;;6.53;;
6344;SDS011;3205;42.666;23.264;2022-09-25T06:53:10;9.25;;;6.18;;
6344;SDS011;3205;42.666;23.264;2022-09-25T06:55:38;6.53;;;5.70;;
6344;SDS011;3205;42.666;23.264;2022-09-25T06:58:07;6.35;;;4.47;;
6344;SDS011;3205;42.666;23.264;2022-09-25T07:00:35;6.35;;;5.13;;
6344;SDS011;3205;42.666;23.264;2022-09-25T07:03:02;8.45;;;5.55;;
6344;SDS011;3205;42.666;23.264;2022-09-25T07:05:47;7.50;;;5.93;;
6344;SDS011;3205;42.666;23.264;2022-09-25T07:08:15;5.65;;;5.13;;
6344;SDS011;3205;42.666;23.264;2022-09-25T07:10:46;7.88;;;5.35;;
6344;SDS011;3205;42.666;23.264;2022-09-25T07:13:15;5.50;;;5.00;;
6344;SDS011;3205;42.666;23.264;2022-09-25T07:15:42;6.20;;;5.60;;
6344;SDS011;3205;42.666;23.264;2022-09-25T07:18:08;6.45;;;4.80;;
6344;SDS011;3205;42.666;23.264;2022-09-25T07:20:35;5.45;;;4.95;;
6344;SDS011;3205;42.666;23.264;2022-09-25T07:23:02;8.00;;;5.25;;
6344;SDS011;3205;42.666;23.264;2022-09-25T07:25:29;7.60;;;4.45;;
6344;SDS011;3205;42.666;23.264;2022-09-25T07:27:56;6.45;;;5.30;;
6344;SDS011;3205;42.666;23.264;2022-09-25T07:30:27;6.63;;;5.82;;
6344;SDS011;3205;42.666;23.264;2022-09-25T07:32:54;6.40;;;5.70;;
6344;SDS011;3205;42.666;23.264;2022-09-25T07:35:21;10.60;;;6.38;;
6344;SDS011;3205;42.666;23.264;2022-09-25T07:37:47;6.55;;;5.90;;
6344;SDS011;3205;42.666;23.264;2022-09-25T07:40:14;5.95;;;5.45;;
6344;SDS011;3205;42.666;23.264;2022-09-25T07:42:41;6.45;;;5.85;;
6344;SDS011;3205;42.666;23.264;2022-09-25T07:45:08;6.13;;;5.28;;
6344;SDS011;3205;42.666;23.264;2022-09-25T07:47:37;6.47;;;5.85;;
6344;SDS011;3205;42.666;23.264;2022-09-25T07:50:04;7.45;;;5.15;;
6344;SDS011;3205;42.666;23.264;2022-09-25T07:52:32;6.30;;;5.25;;
6344;SDS011;3205;42.666;23.264;2022-09-25T07:54:58;7.63;;;5.72;;
6344;SDS011;3205;42.666;23.264;2022-09-25T07:57:25;6.57;;;5.80;;
6344;SDS011;3205;42.666;23.264;2022-09-25T07:59:53;6.72;;;5.97;;
6344;SDS011;3205;42.666;23.264;2022-09-25T08:02:19;7.25;;;5.88;;
6344;SDS011;3205;42.666;23.264;2022-09-25T08:04:48;8.45;;;5.72;;
6344;SDS011;3205;42.666;23.264;2022-09-25T08:07:14;7.32;;;6.25;;
6344;SDS011;3205;42.666;23.264;2022-09-25T08:09:41;8.48;;;6.20;;
6344;SDS011;3205;42.666;23.264;2022-09-25T08:12:09;9.07;;;6.20;;
6344;SDS011;3205;42.666;23.264;2022-09-25T08:14:37;8.35;;;6.32;;
6344;SDS011;3205;42.666;23.264;2022-09-25T08:17:05;10.00;;;6.20;;
6344;SDS011;3205;42.666;23.264;2022-09-25T08:19:32;9.05;;;6.30;;
6344;SDS011;3205;42.666;23.264;2022-09-25T08:22:00;14.32;;;8.10;;
6344;SDS011;3205;42.666;23.264;2022-09-25T08:24:27;7.22;;;6.53;;
6344;SDS011;3205;42.666;23.264;2022-09-25T08:26:54;10.05;;;5.88;;
6344;SDS011;3205;42.666;23.264;2022-09-25T08:29:21;10.10;;;5.95;;
6344;SDS011;3205;42.666;23.264;2022-09-25T08:31:48;10.70;;;6.95;;
6344;SDS011;3205;42.666;23.264;2022-09-25T08:34:15;9.27;;;5.97;;
6344;SDS011;3205;42.666;23.264;2022-09-25T08:36:43;6.72;;;5.53;;
6344;SDS011;3205;42.666;23.264;2022-09-25T08:39:11;8.43;;;5.13;;
6344;SDS011;3205;42.666;23.264;2022-09-25T08:41:41;5.32;;;4.63;;
6344;SDS011;3205;42.666;23.264;2022-09-25T08:44:16;5.13;;;4.70;;
6344;SDS011;3205;42.666;23.264;2022-09-25T08:46:50;8.68;;;4.85;;
6344;SDS011;3205;42.666;23.264;2022-09-25T08:49:40;5.18;;;4.68;;
6344;SDS011;3205;42.666;23.264;2022-09-25T08:52:12;5.38;;;4.88;;
6344;SDS011;3205;42.666;23.264;2022-09-25T08:54:43;5.75;;;4.57;;
6344;SDS011;3205;42.666;23.264;2022-09-25T08:57:26;5.30;;;4.80;;
6344;SDS011;3205;42.666;23.264;2022-09-25T08:59:56;5.20;;;4.63;;
6344;SDS011;3205;42.666;23.264;2022-09-25T09:02:31;4.90;;;4.40;;
6344;SDS011;3205;42.666;23.264;2022-09-25T09:05:08;7.80;;;3.95;;
6344;SDS011;3205;42.666;23.264;2022-09-25T09:07:43;5.03;;;3.92;;
6344;SDS011;3205;42.666;23.264;2022-09-25T09:10:22;8.57;;;3.97;;
6344;SDS011;3205;42.666;23.264;2022-09-25T09:12:57;5.78;;;4.43;;
6344;SDS011;3205;42.666;23.264;2022-09-25T09:15:41;6.30;;;4.15;;
6344;SDS011;3205;42.666;23.264;2022-09-25T09:18:15;5.88;;;4.60;;
6344;SDS011;3205;42.666;23.264;2022-09-25T09:20:48;8.15;;;4.03;;
6344;SDS011;3205;42.666;23.264;2022-09-25T09:23:17;12.70;;;4.68;;
6344;SDS011;3205;42.666;23.264;2022-09-25T09:25:49;9.48;;;4.07;;
6344;SDS011;3205;42.666;23.264;2022-09-25T09:31:23;8.05;;;4.38;;
6344;SDS011;3205;42.666;23.264;2022-09-25T09:33:58;5.20;;;3.88;;
6344;SDS011;3205;42.666;23.264;2022-09-25T09:36:36;6.93;;;3.78;;
6344;SDS011;3205;42.666;23.264;2022-09-25T09:39:10;5.53;;;4.10;;
6344;SDS011;3205;42.666;23.264;2022-09-25T09:41:47;5.10;;;3.58;;
6344;SDS011;3205;42.666;23.264;2022-09-25T09:44:27;4.97;;;3.78;;
6344;SDS011;3205;42.666;23.264;2022-09-25T09:47:12;12.45;;;3.60;;
6344;SDS011;3205;42.666;23.264;2022-09-25T09:49:50;7.95;;;3.75;;
6344;SDS011;3205;42.666;23.264;2022-09-25T09:52:24;7.32;;;3.50;;
6344;SDS011;3205;42.666;23.264;2022-09-25T09:54:56;7.32;;;4.13;;
6344;SDS011;3205;42.666;23.264;2022-09-25T09:57:28;7.53;;;3.75;;
6344;SDS011;3205;42.666;23.264;2022-09-25T09:59:59;17.02;;;4.50;;
6344;SDS011;3205;42.666;23.264;2022-09-25T10:02:31;5.10;;;3.65;;
6344;SDS011;3205;42.666;23.264;2022-09-25T10:05:03;4.82;;;3.83;;
6344;SDS011;3205;42.666;23.264;2022-09-25T10:07:34;5.07;;;4.00;;
6344;SDS011;3205;42.666;23.264;2022-09-25T10:10:08;4.22;;;3.83;;
6344;SDS011;3205;42.666;23.264;2022-09-25T10:12:40;6.25;;;3.60;;
6344;SDS011;3205;42.666;23.264;2022-09-25T10:15:14;9.35;;;4.00;;
6344;SDS011;3205;42.666;23.264;2022-09-25T10:17:44;8.43;;;3.83;;
6344;SDS011;3205;42.666;23.264;2022-09-25T10:20:14;5.93;;;3.92;;
6344;SDS011;3205;42.666;23.264;2022-09-25T10:22:45;7.47;;;3.92;;
6344;SDS011;3205;42.666;23.264;2022-09-25T10:25:12;15.23;;;4.40;;
6344;SDS011;3205;42.666;23.264;2022-09-25T10:27:40;3.70;;;3.40;;
6344;SDS011;3205;42.666;23.264;2022-09-25T10:30:16;7.40;;;3.92;;
6344;SDS011;3205;42.666;23.264;2022-09-25T10:35:40;6.57;;;3.47;;
6344;SDS011;3205;42.666;23.264;2022-09-25T10:38:16;4.00;;;3.63;;
6344;SDS011;3205;42.666;23.264;2022-09-25T10:40:55;4.05;;;3.20;;
6344;SDS011;3205;42.666;23.264;2022-09-25T10:43:25;7.05;;;3.30;;
6344;SDS011;3205;42.666;23.264;2022-09-25T10:46:03;5.65;;;3.35;;
6344;SDS011;3205;42.666;23.264;2022-09-25T10:48:32;5.43;;;3.40;;
6344;SDS011;3205;42.666;23.264;2022-09-25T10:51:17;6.18;;;3.28;;
6344;SDS011;3205;42.666;23.264;2022-09-25T10:53:45;5.00;;;3.45;;
6344;SDS011;3205;42.666;23.264;2022-09-25T10:56:14;3.50;;;3.20;;
6344;SDS011;3205;42.666;23.264;2022-09-25T10:58:46;4.32;;;3.38;;
6344;SDS011;3205;42.666;23.264;2022-09-25T11:01:17;3.58;;;3.28;;
6344;SDS011;3205;42.666;23.264;2022-09-25T11:03:50;3.33;;;2.90;;
6344;SDS011;3205;42.666;23.264;2022-09-25T11:06:20;5.88;;;3.55;;
6344;SDS011;3205;42.666;23.264;2022-09-25T11:08:57;3.10;;;2.80;;
6344;SDS011;3205;42.666;23.264;2022-09-25T11:11:31;4.03;;;3.63;;
6344;SDS011;3205;42.666;23.264;2022-09-25T11:14:02;4.72;;;3.30;;
6344;SDS011;3205;42.666;23.264;2022-09-25T11:16:46;3.72;;;2.75;;
6344;SDS011;3205;42.666;23.264;2022-09-25T11:19:24;5.57;;;2.90;;
6344;SDS011;3205;42.666;23.264;2022-09-25T11:22:04;7.97;;;3.58;;
6344;SDS011;3205;42.666;23.264;2022-09-25T11:24:45;4.88;;;3.20;;
6344;SDS011;3205;42.666;23.264;2022-09-25T11:27:18;4.07;;;3.28;;
6344;SDS011;3205;42.666;23.264;2022-09-25T11:29:53;5.25;;;3.40;;
6344;SDS011;3205;42.666;23.264;2022-09-25T11:32:28;4.65;;;3.00;;
6344;SDS011;3205;42.666;23.264;2022-09-25T11:35:04;3.05;;;2.85;;
6344;SDS011;3205;42.666;23.264;2022-09-25T11:37:50;3.42;;;3.13;;
6344;SDS011;3205;42.666;23.264;2022-09-25T11:40:29;4.18;;;3.28;;
6344;SDS011;3205;42.666;23.264;2022-09-25T11:43:19;3.28;;;2.97;;
6344;SDS011;3205;42.666;23.264;2022-09-25T11:45:57;6.95;;;3.60;;
6344;SDS011;3205;42.666;23.264;2022-09-25T11:48:32;6.95;;;5.93;;
6344;SDS011;3205;42.666;23.264;2022-09-25T11:51:13;4.35;;;2.80;;
6344;SDS011;3205;42.666;23.264;2022-09-25T11:53:48;4.20;;;2.70;;
6344;SDS011;3205;42.666;23.264;2022-09-25T11:56:24;5.90;;;2.50;;
6344;SDS011;3205;42.666;23.264;2022-09-25T11:59:01;4.30;;;2.80;;
6344;SDS011;3205;42.666;23.264;2022-09-25T12:01:43;4.45;;;2.85;;
6344;SDS011;3205;42.666;23.264;2022-09-25T12:04:25;9.40;;;3.42;;
6344;SDS011;3205;42.666;23.264;2022-09-25T12:07:17;2.95;;;2.65;;
6344;SDS011;3205;42.666;23.264;2022-09-25T12:10:13;4.57;;;2.72;;
6344;SDS011;3205;42.666;23.264;2022-09-25T12:12:52;6.32;;;2.25;;
6344;SDS011;3205;42.666;23.264;2022-09-25T12:15:28;2.83;;;2.30;;
6344;SDS011;3205;42.666;23.264;2022-09-25T12:18:16;2.30;;;1.80;;
6344;SDS011;3205;42.666;23.264;2022-09-25T12:20:56;6.30;;;2.20;;
6344;SDS011;3205;42.666;23.264;2022-09-25T12:23:28;3.70;;;2.17;;
6344;SDS011;3205;42.666;23.264;2022-09-25T12:28:59;6.22;;;2.38;;
6344;SDS011;3205;42.666;23.264;2022-09-25T12:31:39;2.85;;;2.30;;
6344;SDS011;3205;42.666;23.264;2022-09-25T12:34:27;2.70;;;2.33;;
6344;SDS011;3205;42.666;23.264;2022-09-25T12:37:06;3.03;;;2.00;;
6344;SDS011;3205;42.666;23.264;2022-09-25T12:39:45;3.65;;;2.53;;
6344;SDS011;3205;42.666;23.264;2022-09-25T12:42:16;3.33;;;2.45;;
6344;SDS011;3205;42.666;23.264;2022-09-25T12:44:48;4.78;;;2.33;;
6344;SDS011;3205;42.666;23.264;2022-09-25T12:47:20;2.63;;;2.25;;
6344;SDS011;3205;42.666;23.264;2022-09-25T12:49:59;2.58;;;2.00;;
6344;SDS011;3205;42.666;23.264;2022-09-25T12:52:34;3.25;;;2.92;;
6344;SDS011;3205;42.666;23.264;2022-09-25T12:55:05;7.32;;;4.30;;
6344;SDS011;3205;42.666;23.264;2022-09-25T12:57:38;9.80;;;3.08;;
6344;SDS011;3205;42.666;23.264;2022-09-25T13:00:14;5.45;;;3.40;;
6344;SDS011;3205;42.666;23.264;2022-09-25T13:02:47;7.60;;;3.05;;
6344;SDS011;3205;42.666;23.264;2022-09-25T13:05:24;3.85;;;3.10;;
6344;SDS011;3205;42.666;23.264;2022-09-25T13:07:56;3.83;;;2.42;;
6344;SDS011;3205;42.666;23.264;2022-09-25T13:10:32;5.10;;;2.75;;
6344;SDS011;3205;42.666;23.264;2022-09-25T13:13:04;2.92;;;2.70;;
6344;SDS011;3205;42.666;23.264;2022-09-25T13:15:37;2.65;;;2.45;;
6344;SDS011;3205;42.666;23.264;2022-09-25T13:18:06;6.95;;;3.42;;
6344;SDS011;3205;42.666;23.264;2022-09-25T13:20:43;4.85;;;3.40;;
6344;SDS011;3205;42.666;23.264;2022-09-25T13:23:14;4.65;;;2.63;;
6344;SDS011;3205;42.666;23.264;2022-09-25T13:25:52;3.47;;;3.17;;
6344;SDS011;3205;42.666;23.264;2022-09-25T13:28:25;2.70;;;2.28;;
6344;SDS011;3205;42.666;23.264;2022-09-25T13:30:58;2.22;;;2.13;;
6344;SDS011;3205;42.666;23.264;2022-09-25T13:33:28;4.57;;;2.75;;
6344;SDS011;3205;42.666;23.264;2022-09-25T13:36:06;1.75;;;1.65;;
6344;SDS011;3205;42.666;23.264;2022-09-25T13:38:38;2.28;;;1.88;;
6344;SDS011;3205;42.666;23.264;2022-09-25T13:41:27;2.85;;;2.13;;
6344;SDS011;3205;42.666;23.264;2022-09-25T13:50:05;3.00;;;2.33;;
6344;SDS011;3205;42.666;23.264;2022-09-25T13:52:52;2.42;;;2.10;;
6344;SDS011;3205;42.666;23.264;2022-09-25T13:55:42;2.20;;;2.00;;
6344;SDS011;3205;42.666;23.264;2022-09-25T13:58:29;4.78;;;2.17;;
6344;SDS011;3205;42.666;23.264;2022-09-25T14:01:18;4.15;;;2.00;;
6344;SDS011;3205;42.666;23.264;2022-09-25T14:03:59;7.40;;;2.08;;
6344;SDS011;3205;42.666;23.264;2022-09-25T14:06:32;4.90;;;2.33;;
6344;SDS011;3205;42.666;23.264;2022-09-25T14:09:07;4.15;;;2.20;;
6344;SDS011;3205;42.666;23.264;2022-09-25T14:11:36;4.85;;;2.05;;
6344;SDS011;3205;42.666;23.264;2022-09-25T14:14:05;4.80;;;2.65;;
6344;SDS011;3205;42.666;23.264;2022-09-25T14:16:44;4.55;;;2.30;;
6344;SDS011;3205;42.666;23.264;2022-09-25T14:19:16;4.57;;;2.08;;
6344;SDS011;3205;42.666;23.264;2022-09-25T14:21:46;3.50;;;2.47;;
6344;SDS011;3205;42.666;23.264;2022-09-25T14:24:18;2.47;;;2.25;;
6344;SDS011;3205;42.666;23.264;2022-09-25T14:26:46;6.45;;;2.25;;
6344;SDS011;3205;42.666;23.264;2022-09-25T14:29:16;5.38;;;2.50;;
6344;SDS011;3205;42.666;23.264;2022-09-25T14:31:50;3.65;;;2.33;;
6344;SDS011;3205;42.666;23.264;2022-09-25T14:34:37;6.07;;;2.45;;
6344;SDS011;3205;42.666;23.264;2022-09-25T14:37:19;5.82;;;2.42;;
6344;SDS011;3205;42.666;23.264;2022-09-25T14:40:00;4.90;;;2.38;;
6344;SDS011;3205;42.666;23.264;2022-09-25T14:48:12;3.83;;;2.33;;
6344;SDS011;3205;42.666;23.264;2022-09-25T14:50:43;3.85;;;2.33;;
6344;SDS011;3205;42.666;23.264;2022-09-25T14:53:13;3.28;;;2.08;;
6344;SDS011;3205;42.666;23.264;2022-09-25T14:55:53;4.88;;;2.22;;
6344;SDS011;3205;42.666;23.264;2022-09-25T14:58:23;2.45;;;2.13;;
6344;SDS011;3205;42.666;23.264;2022-09-25T15:00:53;3.47;;;2.25;;
6344;SDS011;3205;42.666;23.264;2022-09-25T15:03:24;6.38;;;1.92;;
6344;SDS011;3205;42.666;23.264;2022-09-25T15:05:57;8.55;;;2.50;;
6344;SDS011;3205;42.666;23.264;2022-09-25T15:08:30;4.57;;;2.50;;
6344;SDS011;3205;42.666;23.264;2022-09-25T15:11:02;3.30;;;1.95;;
6344;SDS011;3205;42.666;23.264;2022-09-25T15:13:36;3.60;;;2.30;;
6344;SDS011;3205;42.666;23.264;2022-09-25T15:16:03;2.95;;;1.98;;
6344;SDS011;3205;42.666;23.264;2022-09-25T15:18:50;4.15;;;2.75;;
6344;SDS011;3205;42.666;23.264;2022-09-25T15:21:22;3.83;;;2.25;;
6344;SDS011;3205;42.666;23.264;2022-09-25T15:23:51;2.30;;;2.03;;
6344;SDS011;3205;42.666;23.264;2022-09-25T15:26:21;2.80;;;2.45;;
6344;SDS011;3205;42.666;23.264;2022-09-25T15:28:48;2.50;;;2.30;;
6344;SDS011;3205;42.666;23.264;2022-09-25T15:31:15;3.65;;;2.33;;
6344;SDS011;3205;42.666;23.264;2022-09-25T15:33:43;4.70;;;2.42;;
6344;SDS011;3205;42.666;23.264;2022-09-25T15:36:25;6.35;;;2.75;;
6344;SDS011;3205;42.666;23.264;2022-09-25T15:38:52;3.70;;;2.75;;
6344;SDS011;3205;42.666;23.264;2022-09-25T15:41:22;4.22;;;2.20;;
6344;SDS011;3205;42.666;23.264;2022-09-25T15:43:49;2.47;;;2.28;;
6344;SDS011;3205;42.666;23.264;2022-09-25T15:46:35;4.45;;;2.35;;